Time;durP1;ratioP1;P1;durP2;ratioP2;P2;SDS_P1;SDS_P2;PMS_P1;PMS_P2;Temp;Humidity;BMP_temperature;BMP_pressure;BME280_temperature;BME280_humidity;BME280_pressure;Samples;Min_cycle;Max_cycle;Signal;HPM_P1;HPM_P2
2024/01/31 00:01:21;;;;;;;1.98;0.30;;;;;;;;;;5027976;28;20052;-67
2024/01/31 00:03:49;;;;;;;5.25;0.32;;;;;;;;;;5028805;28;20050;-66
2024/01/31 00:06:16;;;;;;;4.00;0.70;;;;;;;;;;5028003;28;20111;-67
2024/01/31 00:08:43;;;;;;;2.00;0.30;;;;;;;;;;5019050;28;20139;-67
2024/01/31 00:11:12;;;;;;;3.72;0.30;;;;;;;;;;5028596;28;20514;-67
2024/01/31 00:13:39;;;;;;;6.57;0.88;;;;;;;;;;5027801;28;20049;-67
2024/01/31 00:16:07;;;;;;;9.82;0.80;;;;;;;;;;5028358;28;20053;-67
2024/01/31 00:18:34;;;;;;;6.63;0.50;;;;;;;;;;5027648;28;20111;-67
2024/01/31 00:21:01;;;;;;;5.28;0.50;;;;;;;;;;5028290;28;20053;-67
2024/01/31 00:23:28;;;;;;;3.67;0.50;;;;;;;;;;5011221;28;20064;-67
2024/01/31 00:25:57;;;;;;;3.03;0.40;;;;;;;;;;5028068;28;20052;-67
2024/01/31 00:28:25;;;;;;;6.03;0.57;;;;;;;;;;5027220;28;20068;-66
2024/01/31 00:30:52;;;;;;;6.05;0.47;;;;;;;;;;5026487;28;20045;-67
2024/01/31 00:33:20;;;;;;;6.35;0.70;;;;;;;;;;5028529;28;20056;-67
2024/01/31 00:35:47;;;;;;;5.55;0.55;;;;;;;;;;5027024;28;20048;-66
2024/01/31 00:38:14;;;;;;;6.53;0.52;;;;;;;;;;5028267;28;20045;-67
2024/01/31 00:40:42;;;;;;;3.97;0.52;;;;;;;;;;5027676;28;20479;-67
2024/01/31 00:43:10;;;;;;;6.47;0.40;;;;;;;;;;5027839;28;20055;-67
2024/01/31 00:45:39;;;;;;;2.40;0.25;;;;;;;;;;5028394;28;20251;-67
2024/01/31 00:48:06;;;;;;;2.80;0.47;;;;;;;;;;5028295;28;20053;-67
2024/01/31 00:50:34;;;;;;;2.47;0.40;;;;;;;;;;5009980;28;20110;-67
2024/01/31 00:53:01;;;;;;;5.97;1.10;;;;;;;;;;5027148;28;20511;-67
2024/01/31 00:55:28;;;;;;;6.78;0.63;;;;;;;;;;5027731;28;20057;-67
2024/01/31 00:57:55;;;;;;;2.28;0.40;;;;;;;;;;5027334;28;20159;-66
2024/01/31 01:00:25;;;;;;;6.72;0.55;;;;;;;;;;5027393;28;20049;-67
2024/01/31 01:02:54;;;;;;;5.90;0.50;;;;;;;;;;5027203;28;20053;-67
2024/01/31 01:05:22;;;;;;;4.43;0.85;;;;;;;;;;5002590;28;20459;-67
2024/01/31 01:07:50;;;;;;;3.55;1.10;;;;;;;;;;5026489;28;20061;-67
2024/01/31 01:10:19;;;;;;;6.10;0.63;;;;;;;;;;5027584;28;20053;-67
2024/01/31 01:12:47;;;;;;;5.38;0.45;;;;;;;;;;5027820;28;20073;-67
2024/01/31 01:15:18;;;;;;;7.85;0.40;;;;;;;;;;5027182;28;20045;-67
2024/01/31 01:17:45;;;;;;;6.88;0.50;;;;;;;;;;5026336;28;20069;-67
2024/01/31 01:20:14;;;;;;;6.32;0.50;;;;;;;;;;5027012;28;20053;-67
2024/01/31 01:22:42;;;;;;;3.33;0.60;;;;;;;;;;5028244;28;20050;-67
2024/01/31 01:25:10;;;;;;;7.13;0.30;;;;;;;;;;5026909;28;20052;-67
2024/01/31 01:27:37;;;;;;;5.88;0.52;;;;;;;;;;5025567;28;20072;-67
2024/01/31 01:30:05;;;;;;;2.10;0.43;;;;;;;;;;5010984;28;20045;-67
2024/01/31 01:32:32;;;;;;;6.30;0.40;;;;;;;;;;5020042;28;20050;-67
2024/01/31 01:34:59;;;;;;;7.70;0.60;;;;;;;;;;5027375;28;20056;-67
2024/01/31 01:37:28;;;;;;;7.68;1.02;;;;;;;;;;5027128;28;20056;-67
2024/01/31 01:39:55;;;;;;;4.35;0.50;;;;;;;;;;5027417;28;20049;-67
2024/01/31 01:42:23;;;;;;;6.45;0.70;;;;;;;;;;5027283;28;20492;-67
2024/01/31 01:44:50;;;;;;;8.13;0.90;;;;;;;;;;5027199;28;20484;-67
2024/01/31 01:47:17;;;;;;;4.40;0.40;;;;;;;;;;5027417;28;20112;-67
2024/01/31 01:49:45;;;;;;;3.88;1.10;;;;;;;;;;5026737;28;20049;-67
2024/01/31 01:52:12;;;;;;;4.30;0.60;;;;;;;;;;5026896;28;20064;-67
2024/01/31 01:54:41;;;;;;;7.68;0.77;;;;;;;;;;5027204;28;20496;-67
2024/01/31 01:57:08;;;;;;;7.70;0.70;;;;;;;;;;5026960;28;20049;-67
2024/01/31 01:59:35;;;;;;;6.78;0.70;;;;;;;;;;5026781;28;20124;-67
2024/01/31 02:02:02;;;;;;;7.72;1.15;;;;;;;;;;5023621;28;20053;-67
2024/01/31 02:04:30;;;;;;;5.80;0.63;;;;;;;;;;5024658;28;20054;-67
2024/01/31 02:06:57;;;;;;;7.13;0.55;;;;;;;;;;5026437;28;20053;-67
2024/01/31 02:09:26;;;;;;;6.60;0.75;;;;;;;;;;5026734;28;20103;-67
2024/01/31 02:11:54;;;;;;;6.53;0.80;;;;;;;;;;5026964;28;20050;-67
2024/01/31 02:14:22;;;;;;;10.02;1.45;;;;;;;;;;5030251;28;20056;-67
2024/01/31 02:16:49;;;;;;;4.85;0.50;;;;;;;;;;5030383;28;20049;-67
2024/01/31 02:19:16;;;;;;;6.55;0.68;;;;;;;;;;5030276;28;20084;-67
2024/01/31 02:21:44;;;;;;;10.02;0.70;;;;;;;;;;5018026;28;20086;-67
2024/01/31 02:24:13;;;;;;;6.82;0.93;;;;;;;;;;5029970;28;20103;-67
2024/01/31 02:26:40;;;;;;;5.55;0.70;;;;;;;;;;5016227;28;20495;-67
2024/01/31 02:29:07;;;;;;;4.18;0.70;;;;;;;;;;5028322;28;20041;-67
2024/01/31 02:31:34;;;;;;;5.60;0.45;;;;;;;;;;5028449;28;20404;-67
2024/01/31 02:34:02;;;;;;;2.85;0.47;;;;;;;;;;5029989;28;20057;-67
2024/01/31 02:36:29;;;;;;;7.35;0.63;;;;;;;;;;5030433;28;20051;-67
2024/01/31 02:38:56;;;;;;;6.88;0.43;;;;;;;;;;5022761;28;20121;-67
2024/01/31 02:41:25;;;;;;;7.03;0.50;;;;;;;;;;5029655;28;20037;-66
2024/01/31 02:43:52;;;;;;;6.63;0.50;;;;;;;;;;5029183;28;20053;-67
2024/01/31 02:46:19;;;;;;;6.70;0.73;;;;;;;;;;5027318;28;20508;-67
2024/01/31 02:48:48;;;;;;;3.83;0.40;;;;;;;;;;5028712;28;20056;-67
2024/01/31 02:51:16;;;;;;;10.60;0.70;;;;;;;;;;5028225;28;20176;-67
2024/01/31 02:53:43;;;;;;;4.22;0.63;;;;;;;;;;5028079;28;20056;-67
2024/01/31 02:56:10;;;;;;;5.53;0.88;;;;;;;;;;5029512;28;20041;-67
2024/01/31 02:58:39;;;;;;;11.27;0.60;;;;;;;;;;5030047;28;20099;-66
2024/01/31 03:01:07;;;;;;;8.07;0.60;;;;;;;;;;5025120;28;20084;-67
2024/01/31 03:03:34;;;;;;;3.25;0.50;;;;;;;;;;5025232;28;20109;-67
2024/01/31 03:06:01;;;;;;;7.55;0.82;;;;;;;;;;5028191;28;20059;-67
2024/01/31 03:08:29;;;;;;;4.28;0.52;;;;;;;;;;5013374;28;20554;-67
2024/01/31 03:10:56;;;;;;;7.03;0.65;;;;;;;;;;5027910;28;20045;-66
2024/01/31 03:13:23;;;;;;;2.13;0.60;;;;;;;;;;5029694;28;20383;-67
2024/01/31 03:15:52;;;;;;;2.70;0.20;;;;;;;;;;5027218;28;20053;-67
2024/01/31 03:18:19;;;;;;;4.30;0.47;;;;;;;;;;5028593;28;20057;-67
2024/01/31 03:20:46;;;;;;;4.68;0.40;;;;;;;;;;5029315;28;20049;-67
2024/01/31 03:23:14;;;;;;;3.00;0.28;;;;;;;;;;5028111;28;20041;-67
2024/01/31 03:25:41;;;;;;;8.00;0.75;;;;;;;;;;5029517;28;20045;-67
2024/01/31 03:28:08;;;;;;;1.77;0.30;;;;;;;;;;5028401;28;20053;-67
2024/01/31 03:30:35;;;;;;;5.82;0.43;;;;;;;;;;5026119;28;20060;-67
2024/01/31 03:33:04;;;;;;;6.97;0.55;;;;;;;;;;5017190;28;20075;-67
2024/01/31 03:35:31;;;;;;;2.63;0.40;;;;;;;;;;5027363;28;20052;-67
2024/01/31 03:37:59;;;;;;;7.63;0.52;;;;;;;;;;5011358;28;20049;-67
2024/01/31 03:40:26;;;;;;;3.83;0.50;;;;;;;;;;5026081;28;20045;-67
2024/01/31 03:42:53;;;;;;;4.35;0.50;;;;;;;;;;5029200;28;20104;-67
2024/01/31 03:45:21;;;;;;;4.25;0.47;;;;;;;;;;5028186;28;20492;-67
2024/01/31 03:47:48;;;;;;;7.38;0.60;;;;;;;;;;5027785;28;20053;-67
2024/01/31 03:50:17;;;;;;;3.90;0.85;;;;;;;;;;5029104;28;20057;-67
2024/01/31 03:52:44;;;;;;;5.32;0.43;;;;;;;;;;5028210;28;20046;-67
2024/01/31 03:55:11;;;;;;;10.93;0.73;;;;;;;;;;5028662;28;20743;-67
2024/01/31 03:57:38;;;;;;;4.90;0.60;;;;;;;;;;5026447;28;20484;-66
2024/01/31 04:00:08;;;;;;;5.88;0.40;;;;;;;;;;5026718;28;20052;-67
2024/01/31 04:02:36;;;;;;;7.07;0.52;;;;;;;;;;5029034;28;20049;-67
2024/01/31 04:05:03;;;;;;;2.17;0.32;;;;;;;;;;5026302;28;20049;-67
2024/01/31 04:07:32;;;;;;;5.45;0.52;;;;;;;;;;5027525;28;20526;-67
2024/01/31 04:09:59;;;;;;;4.53;1.08;;;;;;;;;;5026118;28;20076;-67
2024/01/31 04:12:26;;;;;;;2.80;0.60;;;;;;;;;;5028903;28;20049;-67
2024/01/31 04:14:54;;;;;;;1.10;0.32;;;;;;;;;;5027506;28;20060;-67
2024/01/31 04:17:21;;;;;;;5.90;0.70;;;;;;;;;;5028640;28;20395;-67
2024/01/31 04:19:48;;;;;;;7.72;0.80;;;;;;;;;;5027291;28;20049;-67
2024/01/31 04:22:16;;;;;;;7.72;0.90;;;;;;;;;;5028385;28;20144;-67
2024/01/31 04:24:45;;;;;;;8.65;0.75;;;;;;;;;;5028410;28;20095;-67
2024/01/31 04:27:12;;;;;;;2.83;0.38;;;;;;;;;;5028588;28;20468;-67
2024/01/31 04:29:40;;;;;;;4.43;0.60;;;;;;;;;;5028397;28;20061;-67
2024/01/31 04:32:07;;;;;;;7.80;1.42;;;;;;;;;;5025359;28;20143;-67
2024/01/31 04:34:35;;;;;;;8.85;0.73;;;;;;;;;;5025957;28;20057;-67
2024/01/31 04:37:02;;;;;;;11.48;0.82;;;;;;;;;;5027118;28;20057;-67
2024/01/31 04:39:28;;;;;;;5.40;0.75;;;;;;;;;;5028859;28;20518;-67
2024/01/31 04:41:57;;;;;;;5.57;0.82;;;;;;;;;;5026994;28;20068;-67
2024/01/31 04:44:24;;;;;;;6.30;0.85;;;;;;;;;;5027795;28;20050;-67
2024/01/31 04:46:51;;;;;;;4.80;0.93;;;;;;;;;;5003397;28;20050;-67
2024/01/31 04:49:19;;;;;;;9.48;0.90;;;;;;;;;;5027737;28;20786;-67
2024/01/31 04:51:46;;;;;;;7.50;0.90;;;;;;;;;;5026417;28;20045;-67
2024/01/31 04:54:13;;;;;;;5.13;0.70;;;;;;;;;;5027643;28;20507;-67
2024/01/31 04:56:41;;;;;;;5.97;0.80;;;;;;;;;;5013085;28;20053;-67
2024/01/31 04:59:09;;;;;;;6.45;1.13;;;;;;;;;;5027790;28;20060;-67
2024/01/31 05:01:36;;;;;;;8.82;0.82;;;;;;;;;;5025915;28;20129;-67
2024/01/31 05:04:04;;;;;;;8.48;1.05;;;;;;;;;;5027805;28;20492;-67
2024/01/31 05:06:31;;;;;;;11.23;0.70;;;;;;;;;;5027198;28;20056;-67
2024/01/31 05:08:58;;;;;;;8.32;0.60;;;;;;;;;;5027630;28;20132;-67
2024/01/31 05:11:26;;;;;;;10.02;0.90;;;;;;;;;;5024208;28;20488;-67
2024/01/31 05:13:53;;;;;;;6.72;0.90;;;;;;;;;;5027084;28;20057;-67
2024/01/31 05:16:21;;;;;;;9.20;1.00;;;;;;;;;;5026054;28;20053;-67
2024/01/31 05:18:49;;;;;;;6.57;0.65;;;;;;;;;;5026887;28;20045;-67
2024/01/31 05:21:16;;;;;;;6.00;0.90;;;;;;;;;;5027130;28;20068;-67
2024/01/31 05:23:43;;;;;;;5.53;0.70;;;;;;;;;;5027966;28;20187;-67
2024/01/31 05:26:11;;;;;;;6.75;0.90;;;;;;;;;;5026615;28;20449;-67
2024/01/31 05:28:38;;;;;;;5.40;0.93;;;;;;;;;;5027080;28;20045;-66
2024/01/31 05:31:06;;;;;;;5.90;0.80;;;;;;;;;;5024885;28;20054;-67
2024/01/31 05:33:34;;;;;;;7.45;0.70;;;;;;;;;;5027709;28;20073;-67
2024/01/31 05:36:02;;;;;;;6.50;1.00;;;;;;;;;;5025602;28;20588;-67
2024/01/31 05:38:30;;;;;;;9.98;0.80;;;;;;;;;;5027222;28;20134;-67
2024/01/31 05:40:57;;;;;;;6.40;0.90;;;;;;;;;;5026144;28;20046;-67
2024/01/31 05:43:24;;;;;;;4.70;0.88;;;;;;;;;;5008076;28;20068;-66
2024/01/31 05:45:51;;;;;;;10.68;0.90;;;;;;;;;;5026884;28;20054;-67
2024/01/31 05:48:19;;;;;;;4.85;0.93;;;;;;;;;;5011846;28;20048;-67
2024/01/31 05:50:48;;;;;;;9.18;1.00;;;;;;;;;;5012026;28;20057;-67
2024/01/31 05:53:15;;;;;;;4.13;0.65;;;;;;;;;;5029742;28;20045;-67
2024/01/31 05:55:42;;;;;;;10.55;0.70;;;;;;;;;;5031338;28;20057;-67
2024/01/31 05:58:10;;;;;;;5.43;0.80;;;;;;;;;;5030355;28;20064;-67
2024/01/31 06:00:37;;;;;;;7.13;0.77;;;;;;;;;;5029658;28;20460;-67
2024/01/31 06:03:04;;;;;;;7.03;0.70;;;;;;;;;;5030102;28;20056;-67
2024/01/31 06:05:32;;;;;;;14.73;1.15;;;;;;;;;;5029980;28;20049;-67
2024/01/31 06:08:00;;;;;;;6.32;0.82;;;;;;;;;;5027602;28;20060;-67
2024/01/31 06:10:28;;;;;;;6.80;0.70;;;;;;;;;;5012486;28;20055;-67
2024/01/31 06:12:55;;;;;;;5.55;1.05;;;;;;;;;;5012847;28;20111;-66
2024/01/31 06:15:23;;;;;;;7.07;0.90;;;;;;;;;;5025794;28;20060;-67
2024/01/31 06:17:51;;;;;;;6.10;0.90;;;;;;;;;;5029167;28;20057;-67
2024/01/31 06:20:19;;;;;;;8.98;0.77;;;;;;;;;;5026326;28;20076;-67
2024/01/31 06:22:46;;;;;;;5.97;1.23;;;;;;;;;;5029136;28;20049;-66
2024/01/31 06:25:15;;;;;;;7.18;0.70;;;;;;;;;;5030363;28;20053;-67
2024/01/31 06:27:42;;;;;;;6.47;0.57;;;;;;;;;;5028163;28;20060;-66
2024/01/31 06:30:19;;;;;;;8.63;0.60;;;;;;;;;;5029045;28;20063;-67
2024/01/31 06:32:47;;;;;;;5.90;0.80;;;;;;;;;;5027301;28;20050;-67
2024/01/31 06:35:15;;;;;;;9.63;1.60;;;;;;;;;;5029356;28;20081;-67
2024/01/31 06:37:42;;;;;;;8.52;0.80;;;;;;;;;;5023505;28;20052;-67
2024/01/31 06:40:09;;;;;;;7.00;1.00;;;;;;;;;;5028457;28;20049;-67
2024/01/31 06:42:38;;;;;;;8.88;1.10;;;;;;;;;;5028471;28;20044;-67
2024/01/31 06:45:06;;;;;;;8.27;0.60;;;;;;;;;;5029097;28;20053;-67
2024/01/31 06:47:33;;;;;;;4.80;0.75;;;;;;;;;;5029591;28;20131;-67
2024/01/31 06:50:00;;;;;;;8.35;0.98;;;;;;;;;;5029563;28;20120;-67
2024/01/31 06:52:27;;;;;;;5.07;1.15;;;;;;;;;;5029187;28;20064;-67
2024/01/31 06:54:55;;;;;;;5.90;1.00;;;;;;;;;;5029220;28;20053;-67
2024/01/31 06:57:22;;;;;;;10.45;1.17;;;;;;;;;;5028584;28;20049;-67
2024/01/31 06:59:51;;;;;;;3.47;0.65;;;;;;;;;;5028973;28;20045;-66
2024/01/31 07:02:18;;;;;;;2.28;0.80;;;;;;;;;;5027366;28;20064;-67
2024/01/31 07:04:45;;;;;;;4.13;1.00;;;;;;;;;;5029900;28;20053;-67
2024/01/31 07:07:12;;;;;;;6.13;1.10;;;;;;;;;;5022831;28;20083;-67
2024/01/31 07:09:40;;;;;;;2.75;0.90;;;;;;;;;;5028541;28;20175;-67
2024/01/31 07:12:08;;;;;;;3.38;1.40;;;;;;;;;;5023676;28;20100;-67
2024/01/31 07:14:35;;;;;;;3.85;1.00;;;;;;;;;;5029326;28;20041;-67
2024/01/31 07:17:04;;;;;;;5.65;1.25;;;;;;;;;;5006956;28;20183;-67
2024/01/31 07:19:32;;;;;;;7.25;1.23;;;;;;;;;;5028827;28;20045;-67
2024/01/31 07:21:59;;;;;;;8.57;1.40;;;;;;;;;;5027683;28;20046;-67
2024/01/31 07:24:27;;;;;;;7.20;1.40;;;;;;;;;;5011753;28;20045;-67
2024/01/31 07:26:55;;;;;;;6.63;1.40;;;;;;;;;;5028470;28;20057;-67
2024/01/31 07:29:22;;;;;;;4.18;1.45;;;;;;;;;;5029286;28;20156;-67
2024/01/31 07:31:49;;;;;;;6.95;1.83;;;;;;;;;;5020126;28;20136;-67
2024/01/31 07:34:18;;;;;;;6.50;1.63;;;;;;;;;;5026102;28;20056;-67
2024/01/31 07:36:45;;;;;;;6.97;1.70;;;;;;;;;;5027040;28;20538;-67
2024/01/31 07:39:14;;;;;;;3.50;1.73;;;;;;;;;;5025434;28;20401;-67
2024/01/31 07:41:41;;;;;;;6.70;1.95;;;;;;;;;;5028370;28;20076;-67
2024/01/31 07:44:09;;;;;;;4.53;1.88;;;;;;;;;;5027137;28;20056;-67
2024/01/31 07:46:36;;;;;;;5.82;1.65;;;;;;;;;;5028776;28;20050;-67
2024/01/31 07:49:06;;;;;;;3.55;1.88;;;;;;;;;;5022454;28;20416;-67
2024/01/31 07:51:42;;;;;;;4.88;2.33;;;;;;;;;;5027795;28;20056;-67
2024/01/31 07:54:09;;;;;;;5.45;2.20;;;;;;;;;;5009694;28;20049;-67
2024/01/31 07:56:36;;;;;;;4.57;2.35;;;;;;;;;;5027815;28;20046;-67
2024/01/31 07:59:03;;;;;;;7.40;2.40;;;;;;;;;;5023768;28;20046;-67
2024/01/31 08:01:31;;;;;;;6.32;2.47;;;;;;;;;;5027955;28;20472;-67
2024/01/31 08:03:58;;;;;;;5.25;2.75;;;;;;;;;;5024091;28;20049;-67
2024/01/31 08:06:25;;;;;;;5.03;3.08;;;;;;;;;;5023832;28;20075;-67
2024/01/31 08:08:54;;;;;;;7.75;2.80;;;;;;;;;;5028015;28;20055;-67
2024/01/31 08:11:21;;;;;;;8.52;3.35;;;;;;;;;;5026060;28;20060;-67
2024/01/31 08:13:48;;;;;;;6.78;2.80;;;;;;;;;;5027628;28;20049;-67
2024/01/31 08:16:16;;;;;;;6.35;3.25;;;;;;;;;;5028111;28;20071;-67
2024/01/31 08:18:43;;;;;;;6.82;3.38;;;;;;;;;;5027983;28;20373;-67
2024/01/31 08:21:11;;;;;;;8.23;3.50;;;;;;;;;;5027923;28;20128;-67
2024/01/31 08:23:38;;;;;;;7.72;3.30;;;;;;;;;;5027187;28;20053;-67
2024/01/31 08:26:07;;;;;;;7.53;3.30;;;;;;;;;;5027313;28;20088;-67
2024/01/31 08:28:37;;;;;;;6.50;3.20;;;;;;;;;;5027776;28;20052;-67
2024/01/31 08:31:05;;;;;;;9.65;3.47;;;;;;;;;;5024708;28;20506;-67
2024/01/31 08:33:32;;;;;;;5.03;3.28;;;;;;;;;;5025917;28;20053;-67
2024/01/31 08:35:59;;;;;;;11.95;3.50;;;;;;;;;;5025481;28;20049;-67
2024/01/31 08:38:26;;;;;;;6.43;3.92;;;;;;;;;;5028481;28;20513;-67
2024/01/31 08:40:54;;;;;;;6.95;3.75;;;;;;;;;;5027187;28;20045;-67
2024/01/31 08:43:23;;;;;;;8.48;4.05;;;;;;;;;;5027322;28;20049;-67
2024/01/31 08:45:50;;;;;;;5.85;3.90;;;;;;;;;;5010072;28;20065;-67
2024/01/31 08:48:18;;;;;;;9.10;4.50;;;;;;;;;;5027388;28;20053;-67
2024/01/31 08:50:45;;;;;;;8.88;4.40;;;;;;;;;;5027716;28;20548;-67
2024/01/31 08:53:12;;;;;;;9.57;4.63;;;;;;;;;;5027355;28;20477;-67
2024/01/31 08:55:42;;;;;;;6.40;4.13;;;;;;;;;;5026776;28;20041;-67
2024/01/31 08:58:09;;;;;;;9.70;4.35;;;;;;;;;;5025935;28;20049;-67
2024/01/31 09:00:38;;;;;;;16.48;4.90;;;;;;;;;;5023468;28;20045;-67
2024/01/31 09:03:05;;;;;;;8.05;4.80;;;;;;;;;;5026953;28;20504;-67
2024/01/31 09:05:32;;;;;;;8.60;4.90;;;;;;;;;;5022980;28;20050;-67
2024/01/31 09:08:00;;;;;;;11.48;4.80;;;;;;;;;;5026441;28;20061;-67
2024/01/31 09:10:27;;;;;;;9.57;4.93;;;;;;;;;;5027957;28;20124;-67
2024/01/31 09:12:54;;;;;;;8.35;5.00;;;;;;;;;;5027978;28;20480;-67
2024/01/31 09:15:22;;;;;;;9.32;5.05;;;;;;;;;;5026916;28;20053;-67
2024/01/31 09:17:51;;;;;;;10.40;4.93;;;;;;;;;;5027277;28;20084;-67
2024/01/31 09:20:20;;;;;;;7.72;4.65;;;;;;;;;;5027124;28;20056;-67
2024/01/31 09:22:47;;;;;;;10.13;5.30;;;;;;;;;;5031402;28;20480;-67
2024/01/31 09:25:15;;;;;;;7.75;5.22;;;;;;;;;;5031427;28;20050;-67
2024/01/31 09:27:43;;;;;;;7.78;5.13;;;;;;;;;;5031741;28;20037;-67
2024/01/31 09:30:11;;;;;;;8.23;5.45;;;;;;;;;;5033828;28;20049;-67
2024/01/31 09:32:39;;;;;;;9.90;5.30;;;;;;;;;;5033183;28;20129;-67
2024/01/31 09:35:08;;;;;;;11.52;5.68;;;;;;;;;;5031395;28;20137;-67
2024/01/31 09:37:35;;;;;;;8.65;5.43;;;;;;;;;;5009779;28;20104;-67
2024/01/31 09:40:03;;;;;;;10.80;6.00;;;;;;;;;;5033925;28;20148;-67
2024/01/31 09:42:30;;;;;;;10.32;5.65;;;;;;;;;;5028248;28;20049;-67
2024/01/31 09:44:59;;;;;;;8.65;5.80;;;;;;;;;;5031073;28;20072;-67
2024/01/31 09:47:29;;;;;;;9.18;6.10;;;;;;;;;;5028484;28;20057;-67
2024/01/31 09:49:56;;;;;;;9.15;5.90;;;;;;;;;;5029479;28;20049;-67
2024/01/31 09:52:28;;;;;;;12.30;6.15;;;;;;;;;;5031100;28;20053;-67
2024/01/31 09:54:57;;;;;;;11.55;5.95;;;;;;;;;;5029875;28;20054;-67
2024/01/31 09:57:25;;;;;;;10.88;5.32;;;;;;;;;;5029016;28;20388;-67
2024/01/31 09:59:55;;;;;;;8.23;5.00;;;;;;;;;;5025891;28;21787;-66
2024/01/31 10:02:22;;;;;;;9.70;5.60;;;;;;;;;;5029881;28;20134;-67
2024/01/31 10:04:50;;;;;;;10.68;6.03;;;;;;;;;;5026241;28;20424;-67
2024/01/31 10:07:23;;;;;;;9.15;5.28;;;;;;;;;;5030043;28;20119;-67
2024/01/31 10:09:53;;;;;;;8.15;5.30;;;;;;;;;;5026975;28;20516;-67
2024/01/31 10:12:22;;;;;;;9.70;5.20;;;;;;;;;;5025771;28;20068;-67
2024/01/31 10:14:51;;;;;;;8.65;5.05;;;;;;;;;;5026848;28;20061;-67
2024/01/31 10:17:19;;;;;;;9.02;5.07;;;;;;;;;;5021266;28;20061;-67
2024/01/31 10:19:47;;;;;;;7.80;5.18;;;;;;;;;;5028671;28;20057;-67
2024/01/31 10:22:14;;;;;;;10.30;5.25;;;;;;;;;;5029377;28;20042;-67
2024/01/31 10:24:42;;;;;;;9.00;4.88;;;;;;;;;;5029700;28;20045;-67
2024/01/31 10:27:11;;;;;;;8.63;5.13;;;;;;;;;;5029603;28;20130;-67
2024/01/31 10:29:39;;;;;;;9.57;5.30;;;;;;;;;;5030155;28;20049;-67
2024/01/31 10:32:07;;;;;;;9.20;4.72;;;;;;;;;;5028635;28;20376;-67
2024/01/31 10:34:35;;;;;;;6.85;4.38;;;;;;;;;;5027191;28;20049;-67
2024/01/31 10:37:03;;;;;;;8.10;4.68;;;;;;;;;;5029155;28;20057;-67
2024/01/31 10:39:30;;;;;;;8.88;5.25;;;;;;;;;;5027504;28;20056;-67
2024/01/31 10:42:01;;;;;;;8.48;5.07;;;;;;;;;;5029576;28;20046;-67
2024/01/31 10:44:33;;;;;;;9.18;5.07;;;;;;;;;;5030551;28;20132;-67
2024/01/31 10:47:01;;;;;;;9.25;5.38;;;;;;;;;;5026327;28;20053;-67
2024/01/31 10:49:28;;;;;;;8.48;5.30;;;;;;;;;;5027422;28;20049;-67
2024/01/31 10:51:57;;;;;;;11.68;5.75;;;;;;;;;;5010098;28;20081;-67
2024/01/31 10:54:27;;;;;;;8.23;5.30;;;;;;;;;;5029486;28;20045;-67
2024/01/31 10:56:56;;;;;;;8.48;4.85;;;;;;;;;;5028980;28;20573;-67
2024/01/31 10:59:26;;;;;;;9.30;5.20;;;;;;;;;;5029819;28;20056;-67
2024/01/31 11:01:58;;;;;;;8.00;4.88;;;;;;;;;;5027689;28;20049;-67
2024/01/31 11:04:26;;;;;;;8.05;4.65;;;;;;;;;;5029586;28;20492;-67
2024/01/31 11:06:53;;;;;;;9.43;5.10;;;;;;;;;;5028787;28;20095;-67
2024/01/31 11:09:23;;;;;;;7.40;4.45;;;;;;;;;;5029430;28;20508;-67
2024/01/31 11:12:01;;;;;;;8.30;4.65;;;;;;;;;;5028719;28;20091;-67
2024/01/31 11:14:29;;;;;;;8.35;4.30;;;;;;;;;;5029554;28;20037;-67
2024/01/31 11:17:07;;;;;;;7.72;4.25;;;;;;;;;;5028914;28;20060;-67
2024/01/31 11:19:36;;;;;;;8.27;3.92;;;;;;;;;;5028376;28;20045;-67
2024/01/31 11:22:03;;;;;;;7.72;4.20;;;;;;;;;;5028325;28;20052;-67
2024/01/31 11:24:31;;;;;;;6.45;3.70;;;;;;;;;;5008701;28;20049;-67
2024/01/31 11:27:02;;;;;;;4.95;3.03;;;;;;;;;;5028775;28;20103;-67
2024/01/31 11:29:30;;;;;;;7.45;4.20;;;;;;;;;;5028996;28;20523;-67
2024/01/31 11:31:58;;;;;;;6.00;3.80;;;;;;;;;;5009905;28;20053;-67
2024/01/31 11:34:26;;;;;;;7.57;4.05;;;;;;;;;;5028739;28;20049;-67
2024/01/31 11:36:54;;;;;;;6.97;3.92;;;;;;;;;;5011329;28;20068;-67
2024/01/31 11:39:21;;;;;;;6.90;3.88;;;;;;;;;;5029425;28;20067;-67
2024/01/31 11:41:49;;;;;;;7.28;3.63;;;;;;;;;;5027839;28;20052;-67
2024/01/31 11:44:16;;;;;;;6.20;3.90;;;;;;;;;;5028569;28;20049;-67
2024/01/31 11:46:43;;;;;;;6.38;3.78;;;;;;;;;;5028092;28;20057;-67
2024/01/31 11:49:11;;;;;;;8.43;3.92;;;;;;;;;;5019811;28;20077;-67
2024/01/31 11:51:40;;;;;;;9.52;4.30;;;;;;;;;;5028136;28;20080;-67
2024/01/31 11:54:07;;;;;;;7.20;3.85;;;;;;;;;;5009067;28;20444;-67
2024/01/31 11:56:34;;;;;;;6.10;4.00;;;;;;;;;;5028756;28;20057;-67
2024/01/31 11:59:03;;;;;;;6.53;3.83;;;;;;;;;;5028466;28;20041;-67
2024/01/31 12:01:33;;;;;;;7.03;3.97;;;;;;;;;;5028389;28;20046;-67
2024/01/31 12:04:02;;;;;;;4.82;3.38;;;;;;;;;;5028942;28;20539;-67
2024/01/31 12:06:29;;;;;;;6.90;3.78;;;;;;;;;;5028161;28;20488;-67
2024/01/31 12:09:01;;;;;;;8.23;3.53;;;;;;;;;;5024487;28;20125;-67
2024/01/31 12:11:28;;;;;;;7.55;3.65;;;;;;;;;;5028663;28;20085;-67
2024/01/31 12:13:56;;;;;;;6.15;4.03;;;;;;;;;;5009663;28;20053;-67
2024/01/31 12:16:23;;;;;;;7.10;4.13;;;;;;;;;;5010759;28;20053;-67
2024/01/31 12:18:59;;;;;;;7.47;4.30;;;;;;;;;;5027970;28;20073;-67
2024/01/31 12:21:27;;;;;;;7.20;3.78;;;;;;;;;;5026218;28;20053;-67
2024/01/31 12:23:54;;;;;;;6.45;3.53;;;;;;;;;;5028516;28;20440;-67
2024/01/31 12:26:23;;;;;;;7.20;3.92;;;;;;;;;;5026546;28;20109;-67
2024/01/31 12:28:56;;;;;;;4.93;3.58;;;;;;;;;;5028246;28;20071;-67
2024/01/31 12:31:23;;;;;;;;;;;;;;;;;;5027071;28;20068;-67
2024/01/31 12:33:51;;;;;;;6.22;3.42;;;;;;;;;;5027665;28;19936;-67
2024/01/31 12:36:18;;;;;;;7.97;4.25;;;;;;;;;;5001380;28;20053;-67
2024/01/31 12:38:45;;;;;;;6.65;4.05;;;;;;;;;;5027841;28;20060;-67
2024/01/31 12:41:12;;;;;;;8.15;4.63;;;;;;;;;;5028499;28;20408;-67
2024/01/31 12:43:41;;;;;;;7.70;4.68;;;;;;;;;;5027560;28;20049;-67
2024/01/31 12:46:08;;;;;;;7.55;4.55;;;;;;;;;;5010452;28;20105;-67
2024/01/31 12:48:36;;;;;;;8.07;4.07;;;;;;;;;;5027327;28;20124;-67
2024/01/31 12:51:03;;;;;;;15.27;5.53;;;;;;;;;;5028067;28;20056;-67
2024/01/31 12:53:30;;;;;;;10.90;6.22;;;;;;;;;;5026969;28;20038;-67
2024/01/31 12:55:57;;;;;;;9.25;5.00;;;;;;;;;;5007728;28;20055;-67
2024/01/31 12:58:25;;;;;;;11.70;5.75;;;;;;;;;;5027640;28;20123;-67
2024/01/31 13:00:53;;;;;;;10.80;5.50;;;;;;;;;;5027990;28;20433;-67
2024/01/31 13:03:21;;;;;;;9.65;5.07;;;;;;;;;;5025572;28;20053;-67
2024/01/31 13:05:48;;;;;;;10.65;5.95;;;;;;;;;;5027608;28;20045;-67
2024/01/31 13:08:16;;;;;;;11.77;5.85;;;;;;;;;;5026560;28;20467;-67
2024/01/31 13:10:43;;;;;;;11.10;6.20;;;;;;;;;;5028498;28;20396;-67
2024/01/31 13:13:11;;;;;;;10.95;5.65;;;;;;;;;;5028094;28;20376;-67
2024/01/31 13:15:38;;;;;;;9.00;5.20;;;;;;;;;;5009648;28;20152;-67
2024/01/31 13:18:07;;;;;;;9.60;4.82;;;;;;;;;;5025213;28;20121;-67
2024/01/31 13:20:34;;;;;;;9.30;5.47;;;;;;;;;;5010297;28;20061;-67
2024/01/31 13:23:02;;;;;;;8.45;4.60;;;;;;;;;;5026265;28;20041;-67
2024/01/31 13:25:29;;;;;;;11.90;5.57;;;;;;;;;;5009987;28;20132;-67
2024/01/31 13:27:56;;;;;;;7.35;4.97;;;;;;;;;;5026716;28;20180;-67
2024/01/31 13:30:23;;;;;;;10.23;5.40;;;;;;;;;;5022936;28;20068;-67
2024/01/31 13:32:51;;;;;;;12.75;6.72;;;;;;;;;;5025431;28;20050;-67
2024/01/31 13:35:20;;;;;;;14.57;5.97;;;;;;;;;;5028369;28;20392;-67
2024/01/31 13:37:48;;;;;;;12.68;6.25;;;;;;;;;;5025703;28;20045;-67
2024/01/31 13:40:16;;;;;;;13.20;5.95;;;;;;;;;;5026732;28;20052;-67
2024/01/31 13:42:47;;;;;;;11.05;6.03;;;;;;;;;;5027278;28;20042;-67
2024/01/31 13:45:15;;;;;;;11.10;6.28;;;;;;;;;;5023066;28;20488;-67
2024/01/31 13:47:42;;;;;;;11.45;6.10;;;;;;;;;;5028167;28;20046;-67
2024/01/31 13:50:09;;;;;;;10.77;6.18;;;;;;;;;;5026344;28;20227;-67
2024/01/31 13:52:38;;;;;;;12.05;5.97;;;;;;;;;;5027416;28;20061;-67
2024/01/31 13:55:06;;;;;;;12.15;6.55;;;;;;;;;;5026821;28;20049;-67
2024/01/31 13:57:33;;;;;;;11.07;6.25;;;;;;;;;;5027944;28;20053;-67
2024/01/31 14:00:04;;;;;;;12.27;5.80;;;;;;;;;;5026635;28;20425;-67
2024/01/31 14:02:32;;;;;;;11.23;6.63;;;;;;;;;;5027425;28;20056;-67
2024/01/31 14:04:59;;;;;;;13.05;6.28;;;;;;;;;;5025626;28;20053;-67
2024/01/31 14:07:27;;;;;;;11.07;6.53;;;;;;;;;;5026557;28;20053;-67
2024/01/31 14:09:56;;;;;;;11.07;5.40;;;;;;;;;;5030004;28;20057;-67
2024/01/31 14:12:24;;;;;;;10.77;5.90;;;;;;;;;;5028583;28;20045;-67
2024/01/31 14:14:55;;;;;;;9.48;5.22;;;;;;;;;;5030861;28;20060;-67
2024/01/31 14:17:22;;;;;;;8.43;4.80;;;;;;;;;;5029986;28;20144;-67
2024/01/31 14:19:50;;;;;;;9.65;4.82;;;;;;;;;;5029686;28;20050;-67
2024/01/31 14:22:19;;;;;;;10.20;4.47;;;;;;;;;;5031062;28;20158;-68
2024/01/31 14:24:47;;;;;;;7.93;4.15;;;;;;;;;;5028944;28;20049;-66
2024/01/31 14:27:16;;;;;;;13.75;4.57;;;;;;;;;;5012765;28;20099;-67
2024/01/31 14:29:44;;;;;;;11.45;4.28;;;;;;;;;;5030684;28;20125;-67
2024/01/31 14:32:12;;;;;;;7.97;4.20;;;;;;;;;;5029872;28;20056;-67
2024/01/31 14:34:39;;;;;;;10.10;4.38;;;;;;;;;;5022008;28;20041;-67
2024/01/31 14:37:07;;;;;;;10.27;3.95;;;;;;;;;;5029012;28;20056;-67
2024/01/31 14:39:34;;;;;;;7.65;3.45;;;;;;;;;;5031492;28;20136;-67
2024/01/31 14:42:01;;;;;;;8.32;3.38;;;;;;;;;;5029820;28;20049;-67
2024/01/31 14:44:33;;;;;;;8.48;2.83;;;;;;;;;;5031111;28;20416;-67